createdAt,value
2022-10-01T00:00:41.133Z,7.80
2022-10-01T00:02:43.886Z,7.70
2022-10-01T00:04:47.200Z,7.70
2022-10-01T00:06:49.820Z,7.70
2022-10-01T00:08:52.446Z,7.70
2022-10-01T00:10:55.094Z,7.70
2022-10-01T00:12:59.028Z,7.70
2022-10-01T00:15:06.009Z,7.70
2022-10-01T00:17:08.953Z,7.70
2022-10-01T00:19:18.169Z,7.60
2022-10-01T00:21:28.264Z,7.60
2022-10-01T00:23:30.828Z,7.60
2022-10-01T00:25:33.772Z,7.50
2022-10-01T00:27:36.756Z,7.60
2022-10-01T00:29:40.215Z,7.50
2022-10-01T00:31:43.273Z,7.50
2022-10-01T00:33:45.851Z,7.60
2022-10-01T00:35:50.175Z,7.60
2022-10-01T00:37:53.067Z,7.60
2022-10-01T00:39:55.688Z,7.60
2022-10-01T00:41:58.249Z,7.60
2022-10-01T00:44:23.520Z,7.60
2022-10-01T00:46:38.298Z,7.60
2022-10-01T00:48:52.334Z,7.60
2022-10-01T00:50:54.950Z,7.60
2022-10-01T00:53:02.127Z,7.60
2022-10-01T00:55:16.697Z,7.60
2022-10-01T00:57:25.214Z,7.60
2022-10-01T00:59:29.295Z,7.60
2022-10-01T01:01:33.462Z,7.60
2022-10-01T01:03:36.235Z,7.60
2022-10-01T01:05:39.690Z,7.60
2022-10-01T01:07:47.492Z,7.60
2022-10-01T01:09:53.391Z,7.60
2022-10-01T01:12:20.104Z,7.60
2022-10-01T01:14:58.034Z,7.50
2022-10-01T01:17:08.793Z,7.50
2022-10-01T01:19:38.504Z,7.50
2022-10-01T01:21:44.940Z,7.50
2022-10-01T01:24:38.646Z,7.40
2022-10-01T01:27:06.295Z,7.40
2022-10-01T01:29:50.823Z,7.40
2022-10-01T01:31:58.409Z,7.40
2022-10-01T01:34:09.618Z,7.40
2022-10-01T01:36:17.420Z,7.40
2022-10-01T01:38:28.157Z,7.40
2022-10-01T01:40:35.170Z,7.40
2022-10-01T01:42:42.180Z,7.40
2022-10-01T01:45:01.983Z,7.40
2022-10-01T01:47:07.489Z,7.40
2022-10-01T01:49:10.102Z,7.50
2022-10-01T01:51:24.504Z,7.50
2022-10-01T01:53:27.161Z,7.50
2022-10-01T01:55:31.089Z,7.50
2022-10-01T01:57:38.666Z,7.50
2022-10-01T01:59:42.157Z,7.50
2022-10-01T02:01:46.022Z,7.60
2022-10-01T02:03:51.501Z,7.50
2022-10-01T02:06:22.003Z,7.50
2022-10-01T02:08:50.909Z,7.50
2022-10-01T02:11:11.361Z,7.50
2022-10-01T02:13:43.630Z,7.60
2022-10-01T02:16:02.170Z,7.50
2022-10-01T02:18:23.881Z,7.50
2022-10-01T02:20:54.485Z,7.60
2022-10-01T02:23:04.141Z,7.60
2022-10-01T02:25:08.737Z,7.60
2022-10-01T02:27:26.656Z,7.60
2022-10-01T02:29:29.742Z,7.60
2022-10-01T02:31:33.692Z,7.60
2022-10-01T02:33:37.510Z,7.60
2022-10-01T02:35:43.815Z,7.60
2022-10-01T02:37:51.397Z,7.60
2022-10-01T02:39:56.658Z,7.60
2022-10-01T02:42:00.856Z,7.60
2022-10-01T02:44:23.298Z,7.60
2022-10-01T02:46:54.344Z,7.60
2022-10-01T02:48:57.943Z,7.60
2022-10-01T02:51:42.542Z,7.60
2022-10-01T02:53:49.567Z,7.60
2022-10-01T02:55:52.870Z,7.70
2022-10-01T02:57:56.658Z,7.70
2022-10-01T03:00:08.305Z,7.70
2022-10-01T03:02:11.383Z,7.70
2022-10-01T03:04:14.122Z,7.70
2022-10-01T03:06:17.153Z,7.70
2022-10-01T03:08:19.765Z,7.80
2022-10-01T03:10:22.368Z,7.70
2022-10-01T03:12:25.224Z,7.80
2022-10-01T03:14:45.720Z,7.80
2022-10-01T03:16:48.259Z,7.90
2022-10-01T03:18:50.883Z,7.90
2022-10-01T03:20:53.466Z,8.00
2022-10-01T03:22:56.063Z,8.00
2022-10-01T03:24:58.792Z,8.00
2022-10-01T03:27:01.498Z,8.00
2022-10-01T03:29:04.979Z,8.10
2022-10-01T03:31:10.449Z,8.10
2022-10-01T03:33:13.138Z,8.10
2022-10-01T03:35:16.106Z,8.20
2022-10-01T03:37:18.960Z,8.20
2022-10-01T03:39:21.535Z,8.20
2022-10-01T03:41:24.462Z,8.20
2022-10-01T03:43:29.156Z,8.20
2022-10-01T03:45:32.229Z,8.30
2022-10-01T03:47:34.972Z,8.30
2022-10-01T03:49:40.977Z,8.30
2022-10-01T03:51:45.271Z,8.30
2022-10-01T03:53:48.411Z,8.30
2022-10-01T03:55:51.105Z,8.30
2022-10-01T03:57:53.679Z,8.30
2022-10-01T03:59:56.275Z,8.30
2022-10-01T04:01:58.984Z,8.30
2022-10-01T04:04:01.936Z,8.40
2022-10-01T04:06:05.196Z,8.40
2022-10-01T04:08:12.406Z,8.40
2022-10-01T04:10:15.086Z,8.40
2022-10-01T04:12:19.678Z,8.40
2022-10-01T04:14:22.249Z,8.40
2022-10-01T04:16:25.555Z,8.40
2022-10-01T04:18:29.006Z,8.40
2022-10-01T04:20:37.497Z,8.40
2022-10-01T04:22:41.912Z,8.40
2022-10-01T04:24:44.701Z,8.40
2022-10-01T04:26:47.281Z,8.40
2022-10-01T04:28:49.952Z,8.40
2022-10-01T04:31:12.498Z,8.40
2022-10-01T04:33:17.367Z,8.40
2022-10-01T04:35:20.300Z,8.50
2022-10-01T04:37:24.655Z,8.40
2022-10-01T04:39:27.250Z,8.40
2022-10-01T04:41:31.497Z,8.50
2022-10-01T04:43:34.435Z,8.50
2022-10-01T04:45:37.991Z,8.50
2022-10-01T04:47:51.506Z,8.50
2022-10-01T04:49:54.180Z,8.50
2022-10-01T04:52:47.923Z,8.60
2022-10-01T04:54:52.391Z,8.60
2022-10-01T04:56:55.158Z,8.60
2022-10-01T04:58:57.743Z,8.60
2022-10-01T05:01:02.254Z,8.60
2022-10-01T05:03:05.146Z,8.60
2022-10-01T05:05:08.344Z,8.60
2022-10-01T05:07:10.956Z,8.70
2022-10-01T05:09:13.683Z,8.70
2022-10-01T05:11:16.270Z,8.80
2022-10-01T05:13:18.808Z,8.80
2022-10-01T05:15:21.674Z,8.80
2022-10-01T05:17:24.724Z,8.80
2022-10-01T05:19:29.681Z,8.70
2022-10-01T05:21:32.636Z,8.80
2022-10-01T05:23:35.493Z,8.80
2022-10-01T05:25:38.571Z,8.80
2022-10-01T05:27:41.265Z,8.80
2022-10-01T05:29:44.320Z,8.80
2022-10-01T05:31:47.126Z,8.80
2022-10-01T05:33:52.784Z,8.90
2022-10-01T05:35:56.380Z,9.00
2022-10-01T05:38:04.184Z,9.00
2022-10-01T05:40:09.986Z,9.00
2022-10-01T05:42:12.788Z,9.10
2022-10-01T05:44:15.427Z,9.10
2022-10-01T05:46:18.198Z,9.20
2022-10-01T05:48:22.056Z,9.20
2022-10-01T05:50:25.462Z,9.20
2022-10-01T05:52:28.027Z,9.20
2022-10-01T05:54:30.764Z,9.20
2022-10-01T05:56:33.665Z,9.20
2022-10-01T05:58:36.875Z,9.20
2022-10-01T06:00:58.695Z,9.30
2022-10-01T06:03:55.911Z,9.40
2022-10-01T06:05:58.461Z,9.50
2022-10-01T06:08:05.832Z,9.70
2022-10-01T06:10:09.434Z,9.80
2022-10-01T06:12:14.439Z,9.90
2022-10-01T06:14:19.116Z,10.00
2022-10-01T06:16:21.996Z,10.10
2022-10-01T06:18:24.624Z,10.20
2022-10-01T06:20:27.345Z,10.30
2022-10-01T06:22:29.902Z,10.30
2022-10-01T06:24:32.679Z,10.30
2022-10-01T06:26:36.492Z,10.40
2022-10-01T06:28:39.022Z,10.40
2022-10-01T06:30:42.355Z,10.50
2022-10-01T06:32:44.945Z,10.50
2022-10-01T06:34:47.532Z,10.60
2022-10-01T06:36:50.249Z,10.70
2022-10-01T06:38:52.886Z,10.70
2022-10-01T06:40:59.408Z,10.80
2022-10-01T06:43:01.983Z,10.80
2022-10-01T06:45:05.068Z,10.80
2022-10-01T06:47:07.701Z,10.80
2022-10-01T06:49:10.492Z,10.80
2022-10-01T06:51:56.972Z,10.90
2022-10-01T06:53:59.735Z,10.90
2022-10-01T06:56:07.072Z,10.90
2022-10-01T06:58:16.785Z,10.90
2022-10-01T07:00:19.320Z,10.90
2022-10-01T07:02:29.162Z,10.90
2022-10-01T07:04:32.409Z,10.90
2022-10-01T07:06:35.737Z,10.90
2022-10-01T07:08:38.770Z,10.90
2022-10-01T07:10:42.040Z,11.00
2022-10-01T07:12:46.164Z,11.00
2022-10-01T07:14:48.756Z,11.00
2022-10-01T07:16:51.386Z,11.10
2022-10-01T07:18:54.148Z,11.20
2022-10-01T07:20:59.944Z,11.20
2022-10-01T07:23:02.739Z,11.30
2022-10-01T07:25:06.036Z,11.30
2022-10-01T07:27:08.876Z,11.40
2022-10-01T07:29:11.670Z,11.40
2022-10-01T07:31:14.564Z,11.50
2022-10-01T07:33:20.911Z,11.60
2022-10-01T07:35:23.648Z,11.70
2022-10-01T07:37:26.216Z,11.70
2022-10-01T07:39:28.783Z,11.90
2022-10-01T07:41:31.476Z,12.00
2022-10-01T07:43:36.265Z,12.10
2022-10-01T07:45:38.954Z,12.20
2022-10-01T07:47:42.066Z,12.20
2022-10-01T07:49:44.726Z,12.40
2022-10-01T07:51:49.790Z,12.40
2022-10-01T07:53:53.168Z,12.50
2022-10-01T07:55:56.966Z,12.60
2022-10-01T07:58:03.265Z,12.60
2022-10-01T08:00:07.102Z,12.60
2022-10-01T08:02:16.735Z,12.70
2022-10-01T08:04:39.910Z,12.80
2022-10-01T08:06:42.731Z,12.90
2022-10-01T08:08:45.651Z,12.90
2022-10-01T08:10:50.759Z,12.90
2022-10-01T08:13:01.565Z,13.00
2022-10-01T08:15:07.179Z,12.90
2022-10-01T08:17:10.237Z,13.00
2022-10-01T08:19:12.986Z,13.00
2022-10-01T08:21:15.809Z,13.00
2022-10-01T08:23:18.537Z,13.10
2022-10-01T08:25:21.194Z,13.00
2022-10-01T08:27:25.720Z,13.10
2022-10-01T08:29:28.699Z,13.10
2022-10-01T08:31:32.170Z,13.20
2022-10-01T08:33:36.084Z,13.30
2022-10-01T08:35:40.594Z,13.40
2022-10-01T08:37:43.191Z,13.60
2022-10-01T08:39:46.277Z,13.70
2022-10-01T08:41:57.408Z,13.80
2022-10-01T08:44:02.854Z,13.80
2022-10-01T08:46:21.780Z,13.90
2022-10-01T08:49:07.181Z,14.10
2022-10-01T08:51:39.505Z,14.10
2022-10-01T08:53:56.043Z,14.10
2022-10-01T08:55:59.836Z,14.00
2022-10-01T08:58:14.806Z,14.10
2022-10-01T09:00:20.164Z,14.10
2022-10-01T09:02:30.917Z,14.10
2022-10-01T09:04:33.679Z,14.20
2022-10-01T09:06:37.870Z,14.40
2022-10-01T09:09:17.743Z,14.40
2022-10-01T09:11:44.791Z,14.50
2022-10-01T09:14:25.024Z,14.60
2022-10-01T09:17:14.069Z,14.70
2022-10-01T09:19:47.932Z,14.70
2022-10-01T09:22:00.086Z,14.60
2022-10-01T09:24:54.078Z,14.60
2022-10-01T09:26:56.693Z,14.50
2022-10-01T09:29:04.184Z,14.50
2022-10-01T09:31:12.222Z,14.50
2022-10-01T09:33:18.857Z,14.40
2022-10-01T09:35:35.704Z,14.40
2022-10-01T09:37:56.901Z,14.40
2022-10-01T09:40:33.850Z,14.30
2022-10-01T09:42:36.511Z,14.20
2022-10-01T09:44:39.191Z,14.10
2022-10-01T09:46:43.231Z,14.00
2022-10-01T09:49:09.556Z,14.00
2022-10-01T09:51:22.301Z,14.00
2022-10-01T09:54:11.080Z,14.00
2022-10-01T09:56:23.659Z,14.00
2022-10-01T09:58:29.343Z,13.90
2022-10-01T10:00:32.718Z,13.90
2022-10-01T10:02:49.278Z,13.90
2022-10-01T10:05:06.025Z,13.80
2022-10-01T10:07:18.428Z,13.70
2022-10-01T10:09:29.682Z,13.70
2022-10-01T10:11:33.759Z,13.50
2022-10-01T10:13:52.111Z,13.50
2022-10-01T10:16:00.184Z,13.40
2022-10-01T10:18:21.550Z,13.40
2022-10-01T10:20:38.195Z,13.30
2022-10-01T10:22:41.292Z,13.20
2022-10-01T10:24:44.194Z,13.20
2022-10-01T10:26:58.481Z,13.10
2022-10-01T10:29:03.448Z,13.10
2022-10-01T10:31:21.710Z,13.00
2022-10-01T10:33:28.494Z,13.00
2022-10-01T10:35:31.861Z,13.00
2022-10-01T10:37:45.507Z,12.90
2022-10-01T10:39:51.329Z,12.90
2022-10-01T10:41:56.296Z,12.90
2022-10-01T10:44:08.071Z,12.90
2022-10-01T10:46:11.315Z,12.90
2022-10-01T10:48:18.909Z,13.00
2022-10-01T10:50:29.948Z,13.00
2022-10-01T10:52:36.404Z,13.10
2022-10-01T10:54:54.635Z,13.10
2022-10-01T10:57:05.370Z,13.10
2022-10-01T10:59:10.789Z,13.10
2022-10-01T11:01:18.120Z,13.10
2022-10-01T11:03:29.927Z,13.10
2022-10-01T11:05:41.474Z,13.10
2022-10-01T11:07:46.857Z,13.10
2022-10-01T11:10:21.402Z,13.20
2022-10-01T11:12:56.713Z,13.20
2022-10-01T11:15:25.090Z,13.30
2022-10-01T11:17:49.082Z,13.30
2022-10-01T11:20:20.959Z,13.30
2022-10-01T11:22:42.449Z,13.30
2022-10-01T11:24:56.795Z,13.30
2022-10-01T11:27:12.505Z,13.30
2022-10-01T11:29:37.389Z,13.30
2022-10-01T11:32:05.774Z,13.20
2022-10-01T11:34:48.795Z,13.20
2022-10-01T11:37:27.221Z,13.20
2022-10-01T11:39:33.815Z,13.20
2022-10-01T11:41:44.576Z,13.30
2022-10-01T11:43:55.833Z,13.40
2022-10-01T11:46:11.273Z,13.50
2022-10-01T11:48:26.250Z,13.60
2022-10-01T11:50:39.100Z,13.70
2022-10-01T11:52:56.845Z,13.70
2022-10-01T11:55:46.747Z,13.70
2022-10-01T11:58:15.909Z,13.60
2022-10-01T12:00:18.457Z,13.60
2022-10-01T12:02:35.071Z,13.70
2022-10-01T12:05:06.945Z,13.70
2022-10-01T12:07:24.555Z,13.70
2022-10-01T12:09:37.479Z,13.70
2022-10-01T12:11:47.126Z,13.60
2022-10-01T12:14:01.892Z,13.60
2022-10-01T12:16:43.077Z,13.60
2022-10-01T12:19:19.028Z,13.60
2022-10-01T12:21:32.442Z,13.60
2022-10-01T12:23:52.701Z,13.50
2022-10-01T12:26:23.278Z,13.40
2022-10-01T12:28:54.575Z,13.40
2022-10-01T12:31:42.045Z,13.30
2022-10-01T12:34:09.155Z,13.30
2022-10-01T12:36:49.866Z,13.30
2022-10-01T12:39:16.283Z,13.20
2022-10-01T12:41:52.180Z,13.20
2022-10-01T12:44:19.611Z,13.20
2022-10-01T12:46:41.584Z,13.20
2022-10-01T12:49:22.665Z,13.20
2022-10-01T12:51:44.587Z,13.20
2022-10-01T12:54:21.141Z,13.30
2022-10-01T12:56:40.459Z,13.30
2022-10-01T12:59:08.108Z,13.40
2022-10-01T13:01:41.181Z,13.40
2022-10-01T13:04:13.979Z,13.40
2022-10-01T13:06:57.640Z,13.50
2022-10-01T13:09:48.617Z,13.60
2022-10-01T13:12:19.463Z,13.70
2022-10-01T13:14:22.689Z,13.80
2022-10-01T13:16:41.372Z,13.90
2022-10-01T13:19:05.802Z,13.90
2022-10-01T13:21:14.884Z,14.00
2022-10-01T13:23:33.931Z,14.10
2022-10-01T13:25:48.016Z,14.20
2022-10-01T13:28:11.752Z,14.20
2022-10-01T13:30:26.363Z,14.30
2022-10-01T13:32:54.759Z,14.50
2022-10-01T13:35:01.039Z,14.60
2022-10-01T13:37:19.508Z,14.70
2022-10-01T13:39:24.115Z,14.80
2022-10-01T13:41:33.725Z,14.80
2022-10-01T13:43:36.560Z,14.80
2022-10-01T13:45:38.986Z,14.80
2022-10-01T13:47:41.597Z,14.70
2022-10-01T13:49:54.168Z,14.80
2022-10-01T13:51:57.917Z,14.80
2022-10-01T13:54:02.869Z,14.80
2022-10-01T13:56:06.483Z,14.90
2022-10-01T13:58:38.605Z,15.00
2022-10-01T14:00:50.882Z,15.10
2022-10-01T14:03:04.368Z,15.20
2022-10-01T14:05:29.620Z,15.30
2022-10-01T14:07:38.026Z,15.30
2022-10-01T14:09:49.192Z,15.30
2022-10-01T14:12:22.595Z,15.30
2022-10-01T14:14:54.855Z,15.30
2022-10-01T14:16:59.235Z,15.20
2022-10-01T14:19:01.952Z,15.10
2022-10-01T14:21:41.596Z,15.00
2022-10-01T14:24:15.184Z,14.90
2022-10-01T14:26:34.065Z,14.80
2022-10-01T14:29:17.522Z,14.80
2022-10-01T14:31:38.937Z,14.80
2022-10-01T14:34:06.327Z,14.80
2022-10-01T14:36:21.473Z,14.80
2022-10-01T14:38:25.117Z,14.80
2022-10-01T14:40:40.259Z,14.80
2022-10-01T14:42:43.678Z,14.80
2022-10-01T14:44:47.456Z,14.80
2022-10-01T14:46:52.309Z,14.80
2022-10-01T14:49:00.114Z,14.80
2022-10-01T14:51:06.739Z,14.80
2022-10-01T14:53:17.630Z,14.80
2022-10-01T14:55:22.908Z,14.80
2022-10-01T14:57:39.926Z,14.80
2022-10-01T14:59:42.714Z,14.80
2022-10-01T15:01:57.344Z,14.80
2022-10-01T15:04:02.925Z,14.90
2022-10-01T15:06:16.177Z,14.90
2022-10-01T15:08:48.094Z,14.90
2022-10-01T15:10:53.782Z,14.90
2022-10-01T15:12:57.077Z,14.90
2022-10-01T15:14:59.763Z,14.90
2022-10-01T15:17:12.967Z,14.90
2022-10-01T15:19:19.687Z,14.90
2022-10-01T15:21:36.113Z,14.90
2022-10-01T15:23:40.935Z,14.90
2022-10-01T15:25:44.606Z,14.90
2022-10-01T15:27:48.951Z,14.90
2022-10-01T15:29:56.914Z,14.80
2022-10-01T15:32:00.502Z,14.80
2022-10-01T15:34:10.158Z,14.80
2022-10-01T15:36:18.958Z,14.80
2022-10-01T15:38:21.769Z,14.80
2022-10-01T15:40:35.518Z,14.80
2022-10-01T15:42:38.317Z,14.80
2022-10-01T15:44:45.970Z,14.80
2022-10-01T15:46:48.675Z,14.70
2022-10-01T15:49:17.550Z,14.70
2022-10-01T15:51:26.350Z,14.70
2022-10-01T15:53:29.537Z,14.70
2022-10-01T15:55:50.478Z,14.60
2022-10-01T15:58:02.714Z,14.60
2022-10-01T16:00:05.856Z,14.60
2022-10-01T16:02:18.727Z,14.60
2022-10-01T16:04:21.508Z,14.60
2022-10-01T16:06:38.704Z,14.60
2022-10-01T16:08:55.951Z,14.60
2022-10-01T16:11:13.034Z,14.60
2022-10-01T16:13:34.012Z,14.60
2022-10-01T16:15:36.583Z,14.60
2022-10-01T16:17:39.581Z,14.60
2022-10-01T16:19:43.049Z,14.50
2022-10-01T16:22:15.593Z,14.50
2022-10-01T16:25:23.764Z,14.50
2022-10-01T16:27:50.213Z,14.40
2022-10-01T16:30:11.982Z,14.40
2022-10-01T16:32:15.071Z,14.30
2022-10-01T16:34:20.272Z,14.20
2022-10-01T16:36:24.495Z,14.20
2022-10-01T16:38:27.055Z,14.10
2022-10-01T16:40:37.014Z,14.00
2022-10-01T16:42:39.932Z,13.90
2022-10-01T16:44:42.527Z,13.80
2022-10-01T16:46:45.112Z,13.80
2022-10-01T16:48:51.590Z,13.70
2022-10-01T16:50:56.412Z,13.60
2022-10-01T16:53:01.372Z,13.50
2022-10-01T16:55:04.492Z,13.50
2022-10-01T16:57:07.099Z,13.40
2022-10-01T16:59:10.573Z,13.30
2022-10-01T17:01:15.644Z,13.30
2022-10-01T17:03:22.584Z,13.20
2022-10-01T17:05:36.008Z,13.20
2022-10-01T17:07:38.819Z,13.10
2022-10-01T17:09:41.397Z,13.10
2022-10-01T17:11:44.049Z,13.00
2022-10-01T17:13:46.635Z,13.00
2022-10-01T17:15:50.729Z,13.00
2022-10-01T17:17:54.999Z,13.00
2022-10-01T17:19:57.607Z,13.00
2022-10-01T17:22:00.223Z,13.00
2022-10-01T17:24:03.156Z,13.10
2022-10-01T17:26:09.643Z,13.10
2022-10-01T17:28:17.523Z,13.10
2022-10-01T17:30:20.129Z,13.10
2022-10-01T17:32:23.828Z,13.10
2022-10-01T17:34:26.607Z,13.10
2022-10-01T17:36:29.266Z,13.10
2022-10-01T17:38:33.254Z,13.10
2022-10-01T17:40:37.110Z,13.20
2022-10-01T17:42:39.838Z,13.20
2022-10-01T17:44:42.434Z,13.20
2022-10-01T17:46:45.188Z,13.20
2022-10-01T17:48:49.552Z,13.30
2022-10-01T17:51:05.644Z,13.40
2022-10-01T17:53:08.198Z,13.40
2022-10-01T17:55:12.315Z,13.50
2022-10-01T17:57:14.891Z,13.50
2022-10-01T17:59:17.834Z,13.50
2022-10-01T18:01:22.362Z,13.50
2022-10-01T18:03:25.078Z,13.50
2022-10-01T18:05:27.724Z,13.60
2022-10-01T18:07:30.310Z,13.60
2022-10-01T18:09:32.953Z,13.60
2022-10-01T18:11:35.513Z,13.60
2022-10-01T18:13:39.336Z,13.70
2022-10-01T18:15:41.961Z,13.60
2022-10-01T18:17:51.344Z,13.60
2022-10-01T18:19:54.602Z,13.60
2022-10-01T18:21:59.127Z,13.60
2022-10-01T18:24:04.674Z,13.60
2022-10-01T18:26:07.562Z,13.50
2022-10-01T18:28:10.205Z,13.50
2022-10-01T18:30:13.232Z,13.50
2022-10-01T18:32:24.320Z,13.40
2022-10-01T18:34:40.125Z,13.40
2022-10-01T18:36:53.916Z,13.40
2022-10-01T18:39:18.287Z,13.30
2022-10-01T18:41:37.172Z,13.30
2022-10-01T18:43:42.877Z,13.20
2022-10-01T18:46:06.329Z,13.20
2022-10-01T18:48:32.850Z,13.10
2022-10-01T18:51:05.929Z,13.00
2022-10-01T18:53:55.232Z,12.90
2022-10-01T18:56:15.693Z,12.90
2022-10-01T18:59:06.621Z,12.80
2022-10-01T19:02:01.250Z,12.70
2022-10-01T19:04:37.392Z,12.70
2022-10-01T19:07:22.521Z,12.60
2022-10-01T19:09:51.976Z,12.50
2022-10-01T19:12:19.373Z,12.50
2022-10-01T19:14:56.153Z,12.40
2022-10-01T19:17:23.596Z,12.40
2022-10-01T19:19:39.944Z,12.30
2022-10-01T19:22:15.393Z,12.30
2022-10-01T19:24:32.566Z,12.20
2022-10-01T19:27:02.905Z,12.20
2022-10-01T19:29:48.529Z,12.20
2022-10-01T19:32:20.002Z,12.10
2022-10-01T19:34:39.542Z,12.10
2022-10-01T19:36:50.693Z,12.10
2022-10-01T19:38:58.674Z,12.10
2022-10-01T19:41:09.087Z,12.00
2022-10-01T19:43:19.436Z,12.00
2022-10-01T19:45:28.853Z,11.90
2022-10-01T19:48:09.890Z,11.90
2022-10-01T19:50:26.351Z,11.90
2022-10-01T19:52:33.590Z,11.90
2022-10-01T19:54:46.431Z,11.80
2022-10-01T19:57:04.190Z,11.80
2022-10-01T19:59:21.594Z,11.80
2022-10-01T20:01:32.871Z,11.80
2022-10-01T20:03:45.177Z,11.80
2022-10-01T20:05:59.636Z,11.70
2022-10-01T20:08:36.319Z,11.70
2022-10-01T20:11:16.368Z,11.70
2022-10-01T20:13:41.158Z,11.70
2022-10-01T20:15:56.164Z,11.70
2022-10-01T20:18:27.142Z,11.70
2022-10-01T20:20:42.380Z,11.60
2022-10-01T20:23:15.392Z,11.60
2022-10-01T20:25:47.560Z,11.60
2022-10-01T20:28:02.035Z,11.60
2022-10-01T20:30:22.358Z,11.60
2022-10-01T20:32:33.543Z,11.50
2022-10-01T20:35:06.351Z,11.50
2022-10-01T20:37:18.274Z,11.50
2022-10-01T20:39:36.502Z,11.50
2022-10-01T20:41:46.388Z,11.50
2022-10-01T20:43:56.479Z,11.40
2022-10-01T20:46:08.968Z,11.40
2022-10-01T20:48:30.160Z,11.40
2022-10-01T20:50:44.753Z,11.40
2022-10-01T20:53:15.518Z,11.50
2022-10-01T20:55:29.224Z,11.50
2022-10-01T20:57:45.904Z,11.40
2022-10-01T20:59:53.327Z,11.40
2022-10-01T21:02:03.235Z,11.40
2022-10-01T21:04:19.725Z,11.40
2022-10-01T21:06:33.472Z,11.40
2022-10-01T21:09:25.550Z,11.40
2022-10-01T21:11:45.011Z,11.40
2022-10-01T21:14:26.719Z,11.30
2022-10-01T21:16:52.032Z,11.30
2022-10-01T21:19:30.073Z,11.30
2022-10-01T21:22:14.451Z,11.30
2022-10-01T21:24:44.361Z,11.30
2022-10-01T21:27:30.376Z,11.30
2022-10-01T21:30:11.384Z,11.30
2022-10-01T21:33:01.947Z,11.30
2022-10-01T21:35:32.532Z,11.20
2022-10-01T21:37:41.767Z,11.30
2022-10-01T21:40:15.971Z,11.20
2022-10-01T21:42:39.003Z,11.20
2022-10-01T21:45:17.970Z,11.30
2022-10-01T21:47:29.381Z,11.20
2022-10-01T21:50:19.789Z,11.30
2022-10-01T21:52:46.196Z,11.30
2022-10-01T21:55:15.749Z,11.30
2022-10-01T21:58:03.580Z,11.30
2022-10-01T22:00:25.075Z,11.30
2022-10-01T22:02:51.402Z,11.30
2022-10-01T22:05:11.889Z,11.30
2022-10-01T22:07:28.184Z,11.30
2022-10-01T22:09:43.079Z,11.30
2022-10-01T22:11:54.692Z,11.20
2022-10-01T22:14:05.163Z,11.20
2022-10-01T22:16:12.990Z,11.30
2022-10-01T22:18:33.059Z,11.30
2022-10-01T22:20:36.066Z,11.30
2022-10-01T22:22:39.368Z,11.30
2022-10-01T22:24:49.007Z,11.30
2022-10-01T22:26:59.990Z,11.20
2022-10-01T22:29:06.136Z,11.20
2022-10-01T22:31:18.022Z,11.20
2022-10-01T22:33:31.428Z,11.20
2022-10-01T22:36:07.514Z,11.20
2022-10-01T22:38:38.992Z,11.20
2022-10-01T22:40:58.128Z,11.20
2022-10-01T22:43:13.769Z,11.20
2022-10-01T22:45:17.846Z,11.20
2022-10-01T22:47:46.497Z,11.20
2022-10-01T22:50:09.883Z,11.20
2022-10-01T22:52:46.613Z,11.20
2022-10-01T22:55:10.377Z,11.20
2022-10-01T22:57:53.395Z,11.20
2022-10-01T23:00:08.696Z,11.20
2022-10-01T23:02:48.244Z,11.20
2022-10-01T23:05:15.892Z,11.20
2022-10-01T23:07:32.740Z,11.20
2022-10-01T23:10:00.931Z,11.20
2022-10-01T23:12:31.714Z,11.20
2022-10-01T23:14:51.777Z,11.20
2022-10-01T23:17:11.549Z,11.30
2022-10-01T23:19:39.590Z,11.30
2022-10-01T23:21:59.521Z,11.30
2022-10-01T23:24:16.442Z,11.30
2022-10-01T23:26:36.295Z,11.30
2022-10-01T23:29:06.434Z,11.30
2022-10-01T23:31:20.624Z,11.30
2022-10-01T23:33:37.112Z,11.30
2022-10-01T23:35:56.901Z,11.20
2022-10-01T23:38:09.265Z,11.20
2022-10-01T23:40:26.088Z,11.10
2022-10-01T23:42:59.766Z,11.10
2022-10-01T23:45:30.684Z,11.10
2022-10-01T23:47:43.392Z,11.10
2022-10-01T23:49:54.683Z,11.10
2022-10-01T23:52:09.858Z,11.10
2022-10-01T23:54:25.569Z,11.10
2022-10-01T23:56:51.462Z,11.20
2022-10-01T23:59:11.136Z,11.20
